Time;durP1;ratioP1;P1;durP2;ratioP2;P2;SDS_P1;SDS_P2;PMS_P1;PMS_P2;Temp;Humidity;BMP_temperature;BMP_pressure;BME280_temperature;BME280_humidity;BME280_pressure;Samples;Min_cycle;Max_cycle;Signal;HPM_P1;HPM_P2
2021/08/10 00:00:58;;;;;;;;;;;;;;;21.96;52.52;101303.75;5105178;27;19927;-63
2021/08/10 00:03:26;;;;;;;;;;;;;;;21.96;52.57;101303.75;5111841;27;19974;-63
2021/08/10 00:05:55;;;;;;;;;;;;;;;21.96;52.38;101298.34;5108796;27;20005;-63
2021/08/10 00:08:23;;;;;;;;;;;;;;;21.96;52.33;101298.34;5111094;27;19938;-64
2021/08/10 00:10:52;;;;;;;;;;;;;;;21.96;52.31;101295.66;5109097;27;19936;-63
2021/08/10 00:13:22;;;;;;;;;;;;;;;21.96;52.23;101293.84;5103214;28;19931;-63
2021/08/10 00:15:50;;;;;;;;;;;;;;;21.96;52.51;101283.06;5105090;28;19928;-63
2021/08/10 00:18:18;;;;;;;;;;;;;;;21.97;52.35;101294.69;5107291;27;19950;-63
2021/08/10 00:20:47;;;;;;;;;;;;;;;21.96;52.45;101296.53;5112685;27;19927;-63
2021/08/10 00:23:14;;;;;;;;;;;;;;;21.97;52.45;101300.97;5106771;27;19935;-64
2021/08/10 00:25:42;;;;;;;;;;;;;;;21.97;52.42;101292.88;5109415;27;20004;-64
2021/08/10 00:28:10;;;;;;;;;;;;;;;21.97;52.51;101290.19;5109601;27;19988;-63
2021/08/10 00:30:42;;;;;;;;;;;;;;;21.97;52.34;101287.50;5109709;27;19951;-63
2021/08/10 00:33:10;;;;;;;;;;;;;;;21.98;52.43;101291.03;5104079;27;19936;-63
2021/08/10 00:35:38;;;;;;;;;;;;;;;21.98;52.38;101288.34;5105983;27;22377;-63
2021/08/10 00:38:06;;;;;;;;;;;;;;;21.98;52.36;101289.19;5108251;27;19924;-63
2021/08/10 00:40:36;;;;;;;;;;;;;;;21.98;52.42;101286.50;5106687;27;19996;-63
2021/08/10 00:43:04;;;;;;;;;;;;;;;21.97;52.35;101284.81;5106236;27;20099;-63
2021/08/10 00:45:32;;;;;;;;;;;;;;;21.98;52.65;101280.28;5107929;27;20055;-63
2021/08/10 00:48:03;;;;;;;;;;;;;;;21.98;52.36;101277.56;5108933;27;19928;-63
2021/08/10 00:50:34;;;;;;;;;;;;;;;21.98;52.32;101283.81;5115825;27;19923;-63
2021/08/10 00:53:03;;;;;;;;;;;;;;;21.98;52.52;101286.50;5105729;27;20027;-63
2021/08/10 00:55:32;;;;;;;;;;;;;;;21.99;52.50;101279.31;5107690;28;20004;-63
2021/08/10 00:57:59;;;;;;;;;;;;;;;21.97;52.55;101279.41;5137958;27;20008;-63
2021/08/10 01:00:28;;;;;;;;;;;;;;;21.98;52.74;101274.88;5107803;28;19927;-63
2021/08/10 01:02:57;;;;;;;;;;;;;;;21.98;52.60;101282.97;5109188;28;19965;-63
2021/08/10 01:05:29;;;;;;;;;;;;;;;21.99;52.46;101284.69;5112486;28;19938;-64
2021/08/10 01:08:05;;;;;;;;;;;;;;;21.98;52.74;101272.19;5136815;27;20739;-63
2021/08/10 01:10:35;;;;;;;;;;;;;;;21.97;52.72;101276.72;5107359;28;20479;-63
2021/08/10 01:13:06;;;;;;;;;;;;;;;21.97;52.79;101279.41;5109266;28;20061;-63
2021/08/10 01:15:39;;;;;;;;;;;;;;;21.98;52.82;101289.19;5135974;27;19928;-63
2021/08/10 01:18:13;;;;;;;;;;;;;;;21.98;52.84;101280.28;5111932;28;19973;-63
2021/08/10 01:21:01;;;;;;;;;;;;;;;21.98;52.82;101286.50;5111821;28;19982;-63
2021/08/10 01:23:33;;;;;;;;;;;;;;;21.99;52.52;101279.31;5115483;28;19935;-63
2021/08/10 01:26:05;;;;;;;;;;;;;;;21.98;52.51;101280.28;5122800;27;19943;-64
2021/08/10 01:28:49;;;;;;;;;;;;;;;21.99;52.56;101276.63;5135914;27;19928;-64
2021/08/10 01:31:24;;;;;;;;;;;;;;;21.99;52.31;101274.78;5103929;28;19931;-63
2021/08/10 01:33:58;;;;;;;;;;;;;;;21.99;52.11;101268.53;5108256;28;19927;-63
2021/08/10 01:36:31;;;;;;;;;;;;;;;21.98;52.33;101269.50;5113744;28;19931;-64
2021/08/10 01:39:00;;;;;;;;;;;;;;;21.99;52.22;101265.84;5105785;28;19946;-63
2021/08/10 01:41:33;;;;;;;;;;;;;;;21.99;52.17;101265.84;5107839;28;20578;-64
2021/08/10 01:44:02;;;;;;;;;;;;;;;21.98;52.25;101262.28;5109055;28;19940;-64
2021/08/10 01:46:32;;;;;;;;;;;;;;;21.98;52.42;101264.09;5105658;28;19939;-63
2021/08/10 01:49:03;;;;;;;;;;;;;;;21.98;52.51;101264.09;5111305;28;19932;-64
2021/08/10 01:51:32;;;;;;;;;;;;;;;21.99;52.42;101266.69;5112034;27;19957;-64
2021/08/10 01:54:04;;;;;;;;;;;;;;;21.99;52.37;101265.84;5114647;27;20027;-63
2021/08/10 01:56:34;;;;;;;;;;;;;;;21.99;52.41;101263.16;5113547;27;19932;-64
2021/08/10 01:59:04;;;;;;;;;;;;;;;21.99;52.39;101261.31;5141523;27;19932;-63
2021/08/10 02:01:37;;;;;;;;;;;;;;;21.99;52.66;101255.06;5113404;27;19938;-63
2021/08/10 02:04:06;;;;;;;;;;;;;;;21.99;52.51;101261.31;5115352;28;19931;-64
2021/08/10 02:06:34;;;;;;;;;;;;;;;21.99;52.52;101261.31;5114838;27;19931;-64
2021/08/10 02:09:06;;;;;;;;;;;;;;;21.98;52.57;101256.88;5115064;27;19924;-63
2021/08/10 02:11:35;;;;;;;;;;;;;;;21.98;52.51;101259.56;5129265;27;19932;-63
2021/08/10 02:14:09;;;;;;;;;;;;;;;21.98;52.40;101264.09;5109324;27;21734;-63
2021/08/10 02:16:39;;;;;;;;;;;;;;;21.98;52.44;101270.34;5106307;27;19934;-63
2021/08/10 02:19:11;;;;;;;;;;;;;;;21.98;52.32;101261.41;5110964;27;19924;-63
2021/08/10 02:21:44;;;;;;;;;;;;;;;21.98;52.31;101256.03;5110324;27;20467;-62
2021/08/10 02:24:20;;;;;;;;;;;;;;;21.97;52.76;101265.06;5111553;27;19923;-63
2021/08/10 02:26:51;;;;;;;;;;;;;;;21.98;52.63;101258.72;5116561;27;19929;-63
2021/08/10 02:29:19;;;;;;;;;;;;;;;21.97;52.51;101257.88;5114113;27;19999;-63
2021/08/10 02:31:53;;;;;;;;;;;;;;;21.98;52.47;101261.41;5111162;27;20500;-63
2021/08/10 02:34:25;;;;;;;;;;;;;;;21.98;52.40;101266.81;5126548;27;19981;-63
2021/08/10 02:36:55;;;;;;;;;;;;;;;21.97;52.40;101263.25;5117146;27;20246;-63
2021/08/10 02:39:25;;;;;;;;;;;;;;;21.97;52.53;101255.19;5108520;27;19997;-63
2021/08/10 02:41:55;;;;;;;;;;;;;;;21.98;52.34;101264.97;5109438;27;19932;-63
2021/08/10 02:44:25;;;;;;;;;;;;;;;21.97;52.44;101268.66;5113119;27;19928;-63
2021/08/10 02:46:56;;;;;;;;;;;;;;;21.98;52.32;101258.72;5110845;27;19953;-63
2021/08/10 02:49:26;;;;;;;;;;;;;;;21.98;52.31;101267.66;5111693;27;19950;-63
2021/08/10 02:51:55;;;;;;;;;;;;;;;21.98;52.43;101264.97;5125143;27;19939;-63
2021/08/10 02:54:26;;;;;;;;;;;;;;;21.98;52.21;101267.66;5108784;27;19924;-63
2021/08/10 02:56:55;;;;;;;;;;;;;;;21.98;52.39;101272.19;5113493;27;19932;-63
2021/08/10 02:59:28;;;;;;;;;;;;;;;21.97;52.33;101265.94;5118118;27;19932;-63
2021/08/10 03:02:02;;;;;;;;;;;;;;;21.98;52.44;101264.09;5106583;27;20418;-63
2021/08/10 03:04:31;;;;;;;;;;;;;;;21.98;52.43;101264.97;5109127;27;19931;-63
2021/08/10 03:07:00;;;;;;;;;;;;;;;21.98;52.53;101258.72;5115529;27;19959;-63
2021/08/10 03:09:29;;;;;;;;;;;;;;;21.97;52.47;101265.94;5111888;27;19946;-63
2021/08/10 03:11:59;;;;;;;;;;;;;;;21.98;52.50;101266.81;5109465;27;19950;-63
2021/08/10 03:14:27;;;;;;;;;;;;;;;21.97;52.47;101260.56;5115347;27;19923;-63
2021/08/10 03:16:58;;;;;;;;;;;;;;;21.97;52.39;101267.75;5113347;27;19928;-63
2021/08/10 03:19:28;;;;;;;;;;;;;;;21.97;52.57;101268.66;5110898;27;19927;-63
2021/08/10 03:21:58;;;;;;;;;;;;;;;21.96;52.47;101261.53;5126004;27;19924;-63
2021/08/10 03:24:27;;;;;;;;;;;;;;;21.96;52.54;101263.34;5110567;27;20004;-63
2021/08/10 03:26:58;;;;;;;;;;;;;;;21.97;52.26;101268.66;5107838;27;19935;-63
2021/08/10 03:29:26;;;;;;;;;;;;;;;21.96;52.67;101274.09;5129223;27;19958;-62
2021/08/10 03:31:55;;;;;;;;;;;;;;;21.96;52.86;101266.03;5121479;27;20028;-63
2021/08/10 03:34:24;;;;;;;;;;;;;;;21.96;52.59;101269.59;5116370;27;20306;-63
2021/08/10 03:36:54;;;;;;;;;;;;;;;21.96;52.59;101264.22;5112080;27;19932;-63
2021/08/10 03:39:22;;;;;;;;;;;;;;;21.96;52.73;101266.91;5113948;27;19966;-63
2021/08/10 03:41:53;;;;;;;;;;;;;;;21.96;52.47;101266.03;5110899;27;19955;-63
2021/08/10 03:44:23;;;;;;;;;;;;;;;21.96;52.37;101266.03;5115990;27;19942;-63
2021/08/10 03:46:54;;;;;;;;;;;;;;;21.96;52.42;101261.53;5108837;28;19927;-63
2021/08/10 03:49:25;;;;;;;;;;;;;;;21.96;52.35;101261.53;5111749;27;20461;-63
2021/08/10 03:51:54;;;;;;;;;;;;;;;21.97;52.55;101265.06;5112631;27;19923;-64
2021/08/10 03:54:22;;;;;;;;;;;;;;;21.96;52.32;101266.03;5109900;27;19931;-63
2021/08/10 03:56:52;;;;;;;;;;;;;;;21.96;52.36;101268.72;5110394;27;20049;-64
2021/08/10 03:59:21;;;;;;;;;;;;;;;21.96;52.29;101271.41;5108420;28;19928;-63
2021/08/10 04:01:53;;;;;;;;;;;;;;;21.97;52.47;101273.16;5125354;27;19946;-63
2021/08/10 04:04:26;;;;;;;;;;;;;;;21.97;52.31;101265.06;5116721;27;19989;-64
2021/08/10 04:07:03;;;;;;;;;;;;;;;21.97;52.23;101268.66;5112733;27;19935;-63
2021/08/10 04:09:33;;;;;;;;;;;;;;;21.97;52.45;101275.84;5139708;27;19954;-63
2021/08/10 04:12:04;;;;;;;;;;;;;;;21.97;52.31;101273.16;5144271;27;19966;-62
2021/08/10 04:14:34;;;;;;;;;;;;;;;21.97;52.46;101271.34;5122529;27;19934;-62
2021/08/10 04:17:06;;;;;;;;;;;;;;;21.97;52.41;101268.66;5137781;27;20736;-63
2021/08/10 04:19:45;;;;;;;;;;;;;;;21.97;52.42;101270.47;5103916;27;19939;-60
2021/08/10 04:22:16;;;;;;;;;;;;;;;21.97;52.44;101275.84;5111684;27;19931;-63
2021/08/10 04:24:44;;;;;;;;;;;;;;;21.96;52.46;101274.09;5111650;27;20169;-63
2021/08/10 04:27:13;;;;;;;;;;;;;;;21.97;52.64;101273.16;5104433;27;19928;-60
2021/08/10 04:29:41;;;;;;;;;;;;;;;21.97;52.51;101267.75;5114292;27;19923;-62
2021/08/10 04:32:10;;;;;;;;;;;;;;;21.96;52.49;101260.66;5121959;27;20222;-61
2021/08/10 04:34:43;;;;;;;;;;;;;;;21.97;52.62;101265.06;5108837;27;20013;-62
2021/08/10 04:37:11;;;;;;;;;;;;;;;21.97;52.66;101262.38;5107201;27;19928;-63
2021/08/10 04:39:42;;;;;;;;;;;;;;;21.97;52.58;101265.94;5106614;28;20522;-63
2021/08/10 04:42:14;;;;;;;;;;;;;;;21.97;52.33;101265.94;5140812;27;20018;-63
2021/08/10 04:44:42;;;;;;;;;;;;;;;21.97;52.40;101265.06;5107299;28;19924;-63
2021/08/10 04:47:10;;;;;;;;;;;;;;;21.97;52.37;101268.66;5108330;27;19955;-62
2021/08/10 04:49:38;;;;;;;;;;;;;;;21.97;52.35;101262.38;5113708;27;19932;-62
2021/08/10 04:52:08;;;;;;;;;;;;;;;21.97;52.14;101267.75;5107651;28;19928;-62
2021/08/10 04:54:36;;;;;;;;;;;;;;;21.97;52.44;101271.34;5110224;28;19938;-63
2021/08/10 04:57:04;;;;;;;;;;;;;;;21.97;52.20;101273.16;5109472;27;19924;-63
2021/08/10 04:59:34;;;;;;;;;;;;;;;21.96;52.21;101266.03;5106928;28;19949;-62
2021/08/10 05:02:02;;;;;;;;;;;;;;;21.96;52.17;101269.59;5108880;28;20010;-62
2021/08/10 05:04:31;;;;;;;;;;;;;;;21.97;52.26;101270.47;5108858;28;19931;-63
2021/08/10 05:07:02;;;;;;;;;;;;;;;21.97;52.18;101275.84;5104833;28;19943;-63
2021/08/10 05:09:33;;;;;;;;;;;;;;;21.97;52.33;101281.22;5131133;28;19978;-63
2021/08/10 05:12:01;;;;;;;;;;;;;;;21.96;52.22;101283.06;5109900;28;19966;-63
2021/08/10 05:14:29;;;;;;;;;;;;;;;21.97;52.23;101287.50;5106078;28;19927;-61
2021/08/10 05:16:58;;;;;;;;;;;;;;;21.97;52.09;101287.50;5102557;28;19955;-63
2021/08/10 05:19:26;;;;;;;;;;;;;;;21.97;52.13;101278.53;5118875;27;19935;-62
2021/08/10 05:21:54;;;;;;;;;;;;;;;21.98;52.03;101283.81;5111028;28;19987;-62
2021/08/10 05:24:23;;;;;;;;;;;;;;;21.97;52.15;101279.41;5108911;28;19928;-63
2021/08/10 05:26:52;;;;;;;;;;;;;;;21.97;52.09;101282.13;5111364;27;19928;-63
2021/08/10 05:29:21;;;;;;;;;;;;;;;21.97;52.21;101278.53;5111851;27;19923;-63
2021/08/10 05:31:49;;;;;;;;;;;;;;;21.97;52.13;101282.13;5123571;27;20440;-63
2021/08/10 05:34:17;;;;;;;;;;;;;;;21.96;52.32;101275.00;5110307;27;19928;-62
2021/08/10 05:36:45;;;;;;;;;;;;;;;21.96;52.32;101280.38;5110233;27;19924;-62
2021/08/10 05:39:14;;;;;;;;;;;;;;;21.96;52.19;101272.28;5114054;27;19924;-62
2021/08/10 05:41:43;;;;;;;;;;;;;;;21.97;52.36;101283.91;5110395;27;19927;-62
2021/08/10 05:44:12;;;;;;;;;;;;;;;21.96;52.41;101275.00;5108039;27;19943;-63
2021/08/10 05:46:41;;;;;;;;;;;;;;;21.96;52.35;101268.72;5114140;27;19932;-62
2021/08/10 05:49:09;;;;;;;;;;;;;;;21.97;52.23;101275.84;5122810;27;19932;-63
2021/08/10 05:51:38;;;;;;;;;;;;;;;21.96;52.15;101266.91;5113718;27;19975;-63
2021/08/10 05:54:07;;;;;;;;;;;;;;;21.98;52.17;101272.19;5109872;27;19924;-60
2021/08/10 05:56:35;;;;;;;;;;;;;;;21.99;52.29;101269.38;5106570;27;19973;-61
2021/08/10 05:59:03;;;;;;;;;;;;;;;22.00;52.52;101267.56;5107709;28;20031;-61
2021/08/10 06:01:35;;;;;;;;;;;;;;;22.00;52.43;101260.34;5110310;28;20035;-59
2021/08/10 06:04:03;;;;;;;;;;;;;;;22.02;52.42;101262.94;5111284;28;19924;-59
2021/08/10 06:06:33;;;;;;;;;;;;;;;22.02;52.65;101255.72;5112872;28;19928;-60
2021/08/10 06:09:02;;;;;;;;;;;;;;;22.02;52.66;101258.44;5114679;28;19928;-58
2021/08/10 06:11:30;;;;;;;;;;;;;;;22.02;52.79;101255.72;5104857;28;20023;-59
2021/08/10 06:13:58;;;;;;;;;;;;;;;22.03;52.87;101249.34;5106394;28;19932;-60
2021/08/10 06:16:26;;;;;;;;;;;;;;;22.04;52.88;101242.16;5106330;28;19930;-60
2021/08/10 06:19:02;;;;;;;;;;;;;;;22.05;52.94;101244.75;5116853;28;19958;-60
2021/08/10 06:21:30;;;;;;;;;;;;;;;22.06;53.07;101245.59;5139680;27;19924;-61
2021/08/10 06:24:00;;;;;;;;;;;;;;;22.08;53.25;101246.34;5105239;28;19924;-60
2021/08/10 06:26:28;;;;;;;;;;;;;;;22.10;53.42;101246.25;5113430;28;19939;-59
2021/08/10 06:28:56;;;;;;;;;;;;;;;22.12;53.36;101238.94;5137694;27;19924;-62
2021/08/10 06:31:24;;;;;;;;;;;;;;;22.14;53.30;101235.19;5109541;27;19932;-62
2021/08/10 06:33:53;;;;;;;;;;;;;;;22.17;53.39;101239.50;5114485;27;19986;-61
2021/08/10 06:36:25;;;;;;;;;;;;;;;22.18;53.34;101238.50;5110533;27;19931;-61
2021/08/10 06:38:54;;;;;;;;;;;;;;;22.17;53.55;101243.03;5109311;28;19978;-61
2021/08/10 06:41:23;;;;;;;;;;;;;;;22.19;53.74;101242.94;5112226;27;19942;-60
2021/08/10 06:44:00;;;;;;;;;;;;;;;22.21;53.63;101241.84;5101293;27;19939;-60
2021/08/10 06:46:30;;;;;;;;;;;;;;;22.23;54.11;101239.03;5137121;27;19938;-60
2021/08/10 06:49:04;;;;;;;;;;;;;;;22.26;53.96;101248.75;5108667;27;19928;-62
2021/08/10 06:51:36;;;;;;;;;;;;;;;22.28;53.95;101249.53;5107631;27;19951;-62
2021/08/10 06:54:06;;;;;;;;;;;;;;;22.28;54.01;101250.38;5106106;27;19995;-63
2021/08/10 06:56:35;;;;;;;;;;;;;;;22.30;54.20;101250.25;5139495;27;19939;-60
2021/08/10 06:59:03;;;;;;;;;;;;;;;22.32;53.85;101251.88;5106025;27;19939;-64
2021/08/10 07:01:34;;;;;;;;;;;;;;;22.36;53.97;101248.06;5113010;27;19927;-66
2021/08/10 07:04:04;;;;;;;;;;;;;;;22.43;54.28;101248.50;5101344;27;19934;-63
2021/08/10 07:06:32;;;;;;;;;;;;;;;22.46;53.91;101240.19;5103861;27;19932;-59
2021/08/10 07:09:05;;;;;;;;;;;;;;;22.49;53.31;101239.97;5112936;27;19932;-63
2021/08/10 07:11:43;;;;;;;;;;;;;;;22.50;53.08;101241.69;5137092;27;20017;-63
2021/08/10 07:14:12;;;;;;;;;;;;;;;22.52;53.07;101231.69;5107510;27;20435;-62
2021/08/10 07:16:43;;;;;;;;;;;;;;;22.53;53.50;101240.63;5112826;28;19977;-64
2021/08/10 07:19:13;;;;;;;;;;;;;;;22.53;54.03;101238.78;5108864;27;19923;-60
2021/08/10 07:21:43;;;;;;;;;;;;;;;22.56;54.72;101235.00;5107974;27;19923;-60
2021/08/10 07:24:22;;;;;;;;;;;;;;;22.57;53.44;101239.41;5106859;27;19928;-65
2021/08/10 07:26:52;;;;;;;;;;;;;;;22.56;54.21;101229.59;5108281;28;19963;-63
2021/08/10 07:29:28;;;;;;;;;;;;;;;22.60;55.36;101241.94;5110916;28;19963;-63
2021/08/10 07:31:58;;;;;;;;;;;;;;;22.61;54.92;101242.78;5100717;27;19928;-62
2021/08/10 07:34:26;;;;;;;;;;;;;;;22.63;54.16;101243.53;5102896;27;19934;-59
2021/08/10 07:37:15;;;;;;;;;;;;;;;22.64;54.43;101242.53;5120265;27;19958;-57
2021/08/10 07:39:44;;;;;;;;;;;;;;;22.67;55.50;101245.03;5105022;28;19924;-58
2021/08/10 07:42:18;;;;;;;;;;;;;;;22.70;54.95;101250.22;5108314;28;20023;-63
2021/08/10 07:44:46;;;;;;;;;;;;;;;22.71;54.37;101247.41;5111380;27;19936;-62
2021/08/10 07:47:14;;;;;;;;;;;;;;;22.71;53.63;101251.94;5110722;27;19970;-58
2021/08/10 07:49:43;;;;;;;;;;;;;;;22.69;56.31;101243.97;5108447;27;19994;-61
2021/08/10 07:52:11;;;;;;;;;;;;;;;22.74;56.43;101249.00;5108239;28;19947;-60
2021/08/10 07:54:39;;;;;;;;;;;;;;;22.75;56.65;101241.81;5102920;27;19924;-60
2021/08/10 07:57:11;;;;;;;;;;;;;;;22.79;56.06;101246.00;5104131;27;20298;-60
2021/08/10 07:59:39;;;;;;;;;;;;;;;22.80;55.15;101243.19;5103141;27;19935;-60
2021/08/10 08:02:09;;;;;;;;;;;;;;;22.86;54.68;101242.78;5106621;27;19931;-60
2021/08/10 08:04:37;;;;;;;;;;;;;;;22.92;54.74;101232.50;5105363;27;19931;-59
2021/08/10 08:07:05;;;;;;;;;;;;;;;22.90;53.69;101243.38;5105270;27;19931;-60
2021/08/10 08:09:34;;;;;;;;;;;;;;;22.82;54.27;101241.22;5115134;27;19927;-57
2021/08/10 08:12:02;;;;;;;;;;;;;;;22.76;54.80;101233.59;5105869;27;19949;-59
2021/08/10 08:14:32;;;;;;;;;;;;;;;22.75;54.75;101236.41;5106530;28;20015;-56
2021/08/10 08:17:01;;;;;;;;;;;;;;;22.75;55.29;101229.19;5103200;27;20022;-63
2021/08/10 08:19:29;;;;;;;;;;;;;;;22.74;55.08;101229.28;5099689;28;20473;-59
2021/08/10 08:22:00;;;;;;;;;;;;;;;22.74;55.60;101224.75;5121201;27;19975;-58
2021/08/10 08:24:28;;;;;;;;;;;;;;;22.73;54.75;101217.63;5103237;27;19928;-57
2021/08/10 08:26:56;;;;;;;;;;;;;;;22.74;54.22;101224.75;5102367;28;19928;-58
2021/08/10 08:29:24;;;;;;;;;;;;;;;22.74;53.76;101221.19;5117655;27;19938;-59
2021/08/10 08:31:54;;;;;;;;;;;;;;;22.75;53.35;101221.09;5109676;27;20014;-59
2021/08/10 08:34:27;;;;;;;;;;;;;;;22.80;52.68;101221.63;5113144;27;19990;-59
2021/08/10 08:36:57;;;;;;;;;;;;;;;22.81;52.10;101222.47;5107755;28;19935;-57
2021/08/10 08:39:27;;;;;;;;;;;;;;;22.81;52.54;101222.47;5107566;27;19986;-58
2021/08/10 08:41:56;;;;;;;;;;;;;;;22.77;52.58;101219.16;5103058;28;19989;-57
2021/08/10 08:44:24;;;;;;;;;;;;;;;22.79;52.14;101224.44;5137517;27;19934;-59
2021/08/10 08:46:52;;;;;;;;;;;;;;;22.87;51.83;101228.28;5099188;28;19928;-58
2021/08/10 08:49:23;;;;;;;;;;;;;;;22.97;51.35;101215.00;5140224;27;19928;-55
2021/08/10 08:51:51;;;;;;;;;;;;;;;23.01;51.02;101213.81;5100391;28;19936;-56
2021/08/10 08:54:25;;;;;;;;;;;;;;;22.95;50.57;101211.53;5131518;27;19960;-58
2021/08/10 08:56:53;;;;;;;;;;;;;;;22.99;50.70;101213.03;5107115;27;19927;-58
2021/08/10 08:59:22;;;;;;;;;;;;;;;22.99;50.44;101204.94;5117748;27;19928;-59
2021/08/10 09:01:51;;;;;;;;;;;;;;;22.93;50.60;101218.03;5112944;28;19928;-55
2021/08/10 09:04:23;;;;;;;;;;;;;;;22.84;50.67;101208.78;5137433;27;19924;-58
2021/08/10 09:06:57;;;;;;;;;;;;;;;22.79;50.79;101209.09;5105870;28;19931;-57
2021/08/10 09:09:27;;;;;;;;;;;;;;;22.80;50.52;101208.13;5112042;28;19999;-59
2021/08/10 09:12:08;;;;;;;;;;;;;;;22.85;50.38;101215.88;5123587;28;19935;-58
2021/08/10 09:14:45;;;;;;;;;;;;;;;23.00;49.80;101206.69;5099613;28;19924;-58
2021/08/10 09:17:16;;;;;;;;;;;;;;;23.05;49.74;101206.38;5121291;28;19987;-58
2021/08/10 09:19:48;;;;;;;;;;;;;;;22.95;50.05;101210.69;5102270;28;19927;-58
2021/08/10 09:22:20;;;;;;;;;;;;;;;23.01;49.89;101207.56;5104858;28;19936;-58
2021/08/10 09:24:51;;;;;;;;;;;;;;;22.88;50.30;101207.59;5099530;28;20403;-57
2021/08/10 09:27:25;;;;;;;;;;;;;;;22.83;50.80;101205.22;5100683;28;19924;-57
2021/08/10 09:29:55;;;;;;;;;;;;;;;22.85;51.48;101207.78;5131190;27;19928;-61
2021/08/10 09:32:23;;;;;;;;;;;;;;;22.84;51.26;101209.63;5101599;28;19987;-58
2021/08/10 09:35:10;;;;;;;;;;;;;;;22.84;51.27;101196.16;5108496;28;19954;-57
2021/08/10 09:37:38;;;;;;;;;;;;;;;22.85;50.56;101203.28;5104781;28;19936;-58
2021/08/10 09:40:29;;;;;;;;;;;;;;;22.91;51.04;101203.81;5096024;28;19924;-61
2021/08/10 09:43:18;;;;;;;;;;;;;;;23.00;52.15;101200.44;5100881;28;19939;-57
2021/08/10 09:45:47;;;;;;;;;;;;;;;23.03;53.00;101197.50;5107011;28;19934;-55
2021/08/10 09:48:16;;;;;;;;;;;;;;;23.11;52.52;101197.78;5103820;28;19995;-57
2021/08/10 09:50:48;;;;;;;;;;;;;;;23.20;51.09;101207.09;5109166;28;19989;-63
2021/08/10 09:53:16;;;;;;;;;;;;;;;23.17;51.87;101202.78;5106056;28;19927;-58
2021/08/10 09:55:53;;;;;;;;;;;;;;;23.14;50.53;101199.44;5107173;28;19950;-57
2021/08/10 09:58:21;;;;;;;;;;;;;;;23.24;49.92;101189.69;5101158;28;19973;-51
2021/08/10 10:00:50;;;;;;;;;;;;;;;23.24;49.32;101188.84;5107725;28;19923;-56
2021/08/10 10:03:20;;;;;;;;;;;;;;;23.19;49.60;101190.06;5132312;27;19960;-57
2021/08/10 10:05:57;;;;;;;;;;;;;;;23.16;50.89;101190.25;5104866;28;19928;-63
2021/08/10 10:08:26;;;;;;;;;;;;;;;23.19;50.90;101186.47;5107186;28;19928;-58
2021/08/10 10:10:58;;;;;;;;;;;;;;;23.20;52.38;101185.50;5102876;28;19965;-61
2021/08/10 10:13:33;;;;;;;;;;;;;;;23.16;52.18;101181.31;5107779;28;19936;-61
2021/08/10 10:16:01;;;;;;;;;;;;;;;23.13;53.16;101176.97;5105605;28;20022;-64
2021/08/10 10:18:31;;;;;;;;;;;;;;;23.13;54.05;101182.38;5108902;28;19987;-63
2021/08/10 10:21:01;;;;;;;;;;;;;;;23.15;54.01;101172.38;5106773;28;20493;-68
2021/08/10 10:23:30;;;;;;;;;;;;;;;23.36;54.18;101175.31;5100466;28;19927;-63
2021/08/10 10:26:01;;;;;;;;;;;;;;;23.53;52.79;101173.16;5101625;28;19987;-60
2021/08/10 10:28:32;;;;;;;;;;;;;;;23.62;51.21;101161.66;5105413;27;20433;-65
2021/08/10 10:31:01;;;;;;;;;;;;;;;23.49;52.72;101166.28;5102876;28;20064;-65
2021/08/10 10:33:29;;;;;;;;;;;;;;;23.37;52.92;101166.22;5111524;28;20337;-66
2021/08/10 10:35:58;;;;;;;;;;;;;;;23.50;51.52;101160.75;5100414;28;19928;-66
2021/08/10 10:38:27;;;;;;;;;;;;;;;23.48;50.54;101154.63;5097613;28;20394;-67
2021/08/10 10:40:56;;;;;;;;;;;;;;;23.38;51.19;101170.63;5102463;28;19951;-66
2021/08/10 10:43:24;;;;;;;;;;;;;;;23.29;50.64;101165.94;5101199;28;19928;-66
2021/08/10 10:45:54;;;;;;;;;;;;;;;23.27;50.06;101167.03;5108475;28;20527;-59
2021/08/10 10:48:43;;;;;;;;;;;;;;;23.24;49.05;101165.41;5106029;28;19928;-65
2021/08/10 10:51:12;;;;;;;;;;;;;;;23.23;48.36;101163.69;5101408;28;19963;-66
2021/08/10 10:53:42;;;;;;;;;;;;;;;23.20;48.65;101164.75;5105082;28;19928;-66
2021/08/10 10:56:30;;;;;;;;;;;;;;;23.16;48.80;101163.28;5101338;28;20031;-66
2021/08/10 10:59:13;;;;;;;;;;;;;;;23.12;48.84;101180.63;5104397;28;20356;-65
2021/08/10 11:01:41;;;;;;;;;;;;;;;23.13;48.53;101176.13;5107114;28;19999;-65
2021/08/10 11:04:12;;;;;;;;;;;;;;;23.13;48.51;101171.56;5097858;28;19923;-68
2021/08/10 11:06:46;;;;;;;;;;;;;;;23.19;48.26;101176.56;5099962;28;19928;-66
2021/08/10 11:09:33;;;;;;;;;;;;;;;23.21;48.06;101180.00;5101844;28;19962;-66
2021/08/10 11:12:02;;;;;;;;;;;;;;;23.32;47.86;101179.22;5107041;28;19995;-66
2021/08/10 11:14:57;;;;;;;;;;;;;;;23.31;47.92;101173.91;5107138;28;19932;-66
2021/08/10 11:17:25;;;;;;;;;;;;;;;23.38;47.59;101180.59;5097933;28;19934;-67
2021/08/10 11:19:53;;;;;;;;;;;;;;;23.46;47.29;101182.72;5099850;28;19927;-67
2021/08/10 11:22:25;;;;;;;;;;;;;;;23.46;47.77;101178.16;5104391;28;19955;-68
2021/08/10 11:25:00;;;;;;;;;;;;;;;23.54;47.30;101175.72;5106146;28;19932;-67
2021/08/10 11:27:38;;;;;;;;;;;;;;;23.43;47.53;101170.31;5103872;28;19980;-67
2021/08/10 11:30:08;;;;;;;;;;;;;;;23.53;46.81;101181.25;5109799;27;20608;-67
2021/08/10 11:32:44;;;;;;;;;;;;;;;23.58;46.37;101170.13;5097220;28;19989;-63
2021/08/10 11:35:40;;;;;;;;;;;;;;;23.61;46.50;101172.56;5100848;28;19939;-67
2021/08/10 11:38:09;;;;;;;;;;;;;;;23.57;46.22;101171.94;5106554;28;19932;-67
2021/08/10 11:40:53;;;;;;;;;;;;;;;23.57;46.41;101165.69;5107346;28;19942;-67
2021/08/10 11:43:24;;;;;;;;;;;;;;;23.60;46.48;101160.06;5104467;28;19984;-67
2021/08/10 11:45:53;;;;;;;;;;;;;;;23.57;46.54;101161.13;5104468;28;19928;-63
2021/08/10 11:48:23;;;;;;;;;;;;;;;23.46;46.91;101163.81;5100219;28;19935;-66
2021/08/10 11:50:51;;;;;;;;;;;;;;;23.44;47.06;101165.75;5104788;28;19948;-67
2021/08/10 11:53:29;;;;;;;;;;;;;;;23.40;47.04;101169.66;5104986;28;20379;-66
2021/08/10 11:55:58;;;;;;;;;;;;;;;23.35;47.24;101161.91;5108354;28;19928;-67
2021/08/10 11:58:40;;;;;;;;;;;;;;;23.33;47.51;101166.56;5109034;28;20887;-67
2021/08/10 12:01:10;;;;;;;;;;;;;;;23.32;47.45;101165.72;5103813;28;19948;-67
2021/08/10 12:03:39;;;;;;;;;;;;;;;23.45;47.38;101164.78;5113153;28;19924;-67
2021/08/10 12:06:07;;;;;;;;;;;;;;;23.48;47.21;101159.13;5102744;28;20024;-67
2021/08/10 12:08:35;;;;;;;;;;;;;;;23.53;47.28;101151.56;5104898;28;19928;-67
2021/08/10 12:11:03;;;;;;;;;;;;;;;23.46;47.24;101147.63;5106803;28;19970;-67
2021/08/10 12:13:31;;;;;;;;;;;;;;;23.55;47.33;101149.63;5105732;28;19949;-67
2021/08/10 12:15:59;;;;;;;;;;;;;;;23.56;47.59;101151.34;5107343;28;19930;-67
2021/08/10 12:18:28;;;;;;;;;;;;;;;23.50;47.78;101143.69;5102627;28;19928;-66
2021/08/10 12:21:01;;;;;;;;;;;;;;;23.43;47.68;101140.59;5100508;28;20007;-67
2021/08/10 12:23:38;;;;;;;;;;;;;;;23.43;47.71;101150.53;5102276;28;19962;-67
2021/08/10 12:26:13;;;;;;;;;;;;;;;23.45;47.66;101141.34;5108812;28;19939;-68
2021/08/10 12:28:54;;;;;;;;;;;;;;;23.53;47.29;101148.84;5097084;28;19928;-66
2021/08/10 12:31:24;;;;;;;;;;;;;;;23.68;46.53;101147.69;5096293;28;20697;-67
2021/08/10 12:33:53;;;;;;;;;;;;;;;23.71;46.45;101139.34;5109294;28;19935;-67
2021/08/10 12:36:22;;;;;;;;;;;;;;;23.74;46.17;101135.56;5099696;28;19924;-68
2021/08/10 12:38:51;;;;;;;;;;;;;;;23.69;46.39;101133.22;5101018;28;19942;-67
2021/08/10 12:41:30;;;;;;;;;;;;;;;23.79;46.60;101124.41;5109631;28;19924;-67
2021/08/10 12:43:58;;;;;;;;;;;;;;;23.69;46.54;101126.94;5100182;28;19970;-67
2021/08/10 12:46:30;;;;;;;;;;;;;;;23.56;47.19;101128.88;5112635;28;19924;-67
2021/08/10 12:49:13;;;;;;;;;;;;;;;23.57;46.79;101122.50;5106937;28;19931;-66
2021/08/10 12:52:02;;;;;;;;;;;;;;;23.54;46.74;101123.59;5116212;28;19935;-64
2021/08/10 12:54:30;;;;;;;;;;;;;;;23.55;46.39;101117.22;5107811;28;19977;-66